Terminal Aerodrome Forecast
Issued by NWS Lubbock, TX

Home | Current Version | Previous Version | Text Only | Print | Product List | Glossary On
Versions: 1 2 3 4 5 6 7 8 9 10 11 12 13
000
FTUS44 KLUB 241825 AAA
TAFLBB
TAF AMD
KLBB 241825Z 2418/2518 09015KT P6SM FEW250
     FM242200 10015KT P6SM VCTS SCT060CB SCT250
     FM250500 07015G25KT P6SM -SHRA OVC020
     FM251300 03015KT P6SM OVC040=

USA.gov is the U.S. government's official web portal to all federal, state and local government web resources and services.